Patcona II — WDC2170 — position and weather

sailwx.info

Track history (hours):
 
Tides and Currents Weather Stations Pressure Air Temp Water Temp Dewpoint Dewpoint Depression Visibility Wind Speed Wind Dir Waves Ship Positions

Patcona II

Owner: Connolly-Pacific Co, long beach, CA. More information available from US FCC via Universal Licensing System and Coast Guard Vessel Documentation Center.

Last reported at 2014-Oct-30 23:33 UTC. Time now 2014-Oct-30 23:49 UTC.
Position N 33°46' W 118°13'.

; draft 9 m.

Type: Towing. MMSI: 366988960.

Date/timePositionNaut miles runAvg speedWind from/ knotsBaromVisibWave heightAir tempDewpointWater temp
2014-Oct-30 23:33N 33°46' W 118°13'0 0.0
2014-Oct-30 22:33N 33°46' W 118°13'0 0.0
2014-Oct-30 21:33N 33°46' W 118°13'0 0.0
2014-Oct-30 20:33N 33°46' W 118°13'1204103182.9
2014-Oct-30 20:33N 29°45' W 095°06'12041218.0
2014-Oct-30 19:33N 33°46' W 118°13'120212620.9
2014-Oct-30 19:28N 29°44' W 095°08'12021328.7
2014-Oct-30 18:33N 33°46' W 118°13'120260124.4
2014-Oct-30 18:32N 29°44' W 095°08'12021227.4
2014-Oct-30 17:33N 33°46' W 118°13'1202332969.8
2014-Oct-30 17:33N 29°44' W 095°08'12021206.7
2014-Oct-30 16:33N 33°46' W 118°13'1202360743.5
2014-Oct-30 16:33N 29°44' W 095°08'12021206.5
2014-Oct-30 15:33N 33°46' W 118°13'120414494.7
2014-Oct-30 15:28N 29°45' W 095°06'12041312.9
2014-Oct-30 14:33N 33°46' W 118°13'12046616.7
2014-Oct-30 14:22N 29°45' W 095°06'12041471.6
2014-Oct-30 13:33N 33°46' W 118°13'120414791.5
2014-Oct-30 13:29N 29°45' W 095°06'12041310.5
2014-Oct-30 12:33N 33°46' W 118°13'0 0.0
2014-Oct-30 11:33N 33°46' W 118°13'120414494.7
2014-Oct-30 11:28N 29°45' W 095°06'12041312.5
2014-Oct-30 10:33N 33°46' W 118°13'120414592.3
2014-Oct-30 10:28N 29°45' W 095°06'12041311.7
2014-Oct-30 09:33N 33°46' W 118°13'120438016.9
2014-Oct-30 09:31N 29°45' W 095°06'12041244.0
2014-Oct-30 08:33N 33°46' W 118°13'12049085.8
2014-Oct-30 08:25N 29°45' W 095°06'12041387.7
2014-Oct-30 07:33N 33°46' W 118°13'12043138.3
2014-Oct-30 07:10N 29°45' W 095°06'12041944.3
2014-Oct-30 06:33N 33°46' W 118°13'12042790.7
2014-Oct-30 06:07N 29°45' W 095°06'12042125.5
2014-Oct-30 05:33N 33°46' W 118°13'12046556.6
2014-Oct-30 05:22N 29°45' W 095°06'12041475.1
2014-Oct-30 04:33N 33°46' W 118°13'12043593.6
2014-Oct-30 04:13N 29°45' W 095°06'12041809.6
2014-Oct-30 03:33N 33°46' W 118°13'120441264.7
2014-Oct-30 03:32N 29°46' W 095°06'12041240.4
2014-Oct-30 02:33N 33°46' W 118°13'0 0.0
2014-Oct-30 01:33N 33°46' W 118°13'0 0.0
2014-Oct-30 00:33N 33°46' W 118°13'0 0.0
2014-Oct-29 23:33N 33°46' W 118°13'0 0.0
2014-Oct-29 22:33N 33°46' W 118°13'120478813.0
2014-Oct-29 22:32N 29°46' W 095°05'12041226.6
2014-Oct-29 21:33N 33°46' W 118°13'1200254062.3
2014-Oct-29 21:33N 29°45' W 095°11'12001204.8
2014-Oct-29 20:33N 33°46' W 118°13'0 0.0
2014-Oct-29 19:33N 33°46' W 118°13'0 0.0
2014-Oct-29 18:33N 33°46' W 118°13'0 0.0
2014-Oct-29 17:33N 33°46' W 118°13'0 0.0
2014-Oct-29 16:33N 33°46' W 118°13'0 0.0
2014-Oct-29 15:33N 33°46' W 118°13'0 0.0
2014-Oct-29 14:33N 33°46' W 118°13'0 0.0
2014-Oct-29 13:33N 33°46' W 118°13'0 0.0
2014-Oct-29 12:33N 33°46' W 118°13'0 0.0
2014-Oct-29 11:33N 33°46' W 118°13'11958501.9
2014-Oct-29 11:25N 29°44' W 095°17'11951390.9
2014-Oct-29 10:33N 33°46' W 118°13'119525916.0
2014-Oct-29 10:31N 29°44' W 095°17'11951252.8
2014-Oct-29 09:33N 33°46' W 118°13'1199719351.7
2014-Oct-29 09:33N 29°44' W 095°12'11991200.6
2014-Oct-29 08:33N 33°46' W 118°13'0 0.0
2014-Oct-29 07:33N 33°46' W 118°13'0 0.0
2014-Oct-29 06:33N 33°46' W 118°13'12043268.7
2014-Oct-29 06:11N 29°45' W 095°06'12041906.0
2014-Oct-29 05:33N 33°46' W 118°13'0 0.0
2014-Oct-29 04:33N 33°46' W 118°13'0 0.0
2014-Oct-29 03:33N 33°46' W 118°13'12047923.1
2014-Oct-29 03:24N 29°45' W 095°06'12041419.6
2014-Oct-29 02:33N 33°46' W 118°13'12024056.4
2014-Oct-29 02:16N 29°44' W 095°08'12021709.4
2014-Oct-29 01:33N 33°46' W 118°13'12027003.5
2014-Oct-29 01:23N 29°44' W 095°08'12021450.5
2014-Oct-29 00:33N 33°46' W 118°13'0 0.0
2014-Oct-28 23:33N 33°46' W 118°13'0 0.0
2014-Oct-28 22:33N 33°46' W 118°13'0 0.0
2014-Oct-28 21:33N 33°46' W 118°13'1202113899.8
2014-Oct-28 21:33N 29°44' W 095°08'12021215.4
2014-Oct-28 20:33N 33°46' W 118°13'120363700.5
2014-Oct-28 20:32N 29°44' W 095°07'12031226.1
2014-Oct-28 19:33N 33°46' W 118°13'0 0.0
2014-Oct-28 18:33N 33°46' W 118°13'0 0.0
2014-Oct-28 17:33N 33°46' W 118°13'0 0.0
2014-Oct-28 16:33N 33°46' W 118°13'0 0.0
2014-Oct-28 15:33N 33°46' W 118°13'0 0.0
2014-Oct-28 14:33N 33°46' W 118°13'120413629.8
2014-Oct-28 14:28N 29°45' W 095°06'12041320.6
2014-Oct-28 13:33N 33°46' W 118°13'0 0.0
2014-Oct-28 12:33N 33°46' W 118°13'0 0.0
2014-Oct-28 11:33N 33°46' W 118°13'0 0.0
2014-Oct-28 10:33N 33°46' W 118°13'0 0.0
2014-Oct-28 09:33N 33°46' W 118°13'0 0.0
2014-Oct-28 08:33N 33°46' W 118°13'0 0.0
2014-Oct-28 07:33N 33°46' W 118°13'0 0.0
2014-Oct-28 06:33N 33°46' W 118°13'0 0.0
2014-Oct-28 05:33N 33°46' W 118°13'0 0.0
2014-Oct-28 04:33N 33°46' W 118°13'0 0.0
2014-Oct-28 03:34N 33°46' W 118°13'0 0.0
2014-Oct-28 02:33N 33°46' W 118°13'0 0.0
2014-Oct-28 01:33N 33°46' W 118°13'0 0.0
2014-Oct-28 00:33N 33°46' W 118°13'12043983.4
2014-Oct-28 00:15N 29°45' W 095°06'12041732.2
2014-Oct-27 23:33N 33°46' W 118°13'1204254936.4
2014-Oct-27 23:33N 29°45' W 095°06'12041209.6
2014-Oct-27 22:33N 33°46' W 118°13'0 0.0
2014-Oct-27 21:33N 33°46' W 118°13'0 0.0
2014-Oct-27 20:33N 33°46' W 118°13'0 0.0
2014-Oct-27 19:33N 33°46' W 118°13'12043529.6
2014-Oct-27 19:13N 29°45' W 095°06'12041826.5
2014-Oct-27 18:33N 33°46' W 118°13'0 0.0
2014-Oct-27 17:33N 33°46' W 118°13'0 0.0
2014-Oct-27 16:33N 33°46' W 118°13'0 0.0
2014-Oct-27 15:33N 33°46' W 118°13'0 0.0
2014-Oct-27 14:33N 33°46' W 118°13'0 0.0
2014-Oct-27 13:33N 33°46' W 118°13'12035339.0
2014-Oct-27 13:20N 29°46' W 095°07'12031553.1
2014-Oct-27 12:33N 33°46' W 118°13'0 0.0
2014-Oct-27 11:33N 33°46' W 118°13'12033761.9
2014-Oct-27 11:14N 29°46' W 095°07'12031767.3
2014-Oct-27 10:33N 33°46' W 118°13'1203481323.3
2014-Oct-27 10:33N 29°46' W 095°06'12031207.0
2014-Oct-27 09:33N 33°46' W 118°13'1199392520.5
2014-Oct-27 09:33N 29°45' W 095°12'11991202.7
2014-Oct-27 08:33N 33°46' W 118°13'119810756.0
2014-Oct-27 08:27N 29°44' W 095°13'11981339.9
2014-Oct-27 07:33N 33°46' W 118°13'119822347.9
2014-Oct-27 07:30N 29°44' W 095°13'11981273.4
2014-Oct-27 06:33N 33°46' W 118°13'1198105198.8
2014-Oct-27 06:33N 29°44' W 095°13'11981212.2
2014-Oct-27 05:33N 33°46' W 118°13'1198102694.1
2014-Oct-27 05:33N 29°44' W 095°13'11981208.2
2014-Oct-27 04:33N 33°46' W 118°13'1198139133.9
2014-Oct-27 04:33N 29°44' W 095°13'11981211.9
2014-Oct-27 03:33N 33°46' W 118°13'1198119809.8
2014-Oct-27 03:33N 29°44' W 095°13'11981210.2
2014-Oct-27 02:33N 33°46' W 118°13'119950187.9
2014-Oct-27 02:32N 29°44' W 095°12'11991228.6
2014-Oct-27 01:33N 33°46' W 118°13'1204160537.8
2014-Oct-27 01:33N 29°46' W 095°05'12041216.2
2014-Oct-27 00:34N 33°46' W 118°13'120312134.3
2014-Oct-27 00:28N 29°47' W 095°06'12031332.1
2014-Oct-26 23:33N 33°46' W 118°13'120324754.0
2014-Oct-26 23:30N 29°47' W 095°06'12031264.8
2014-Oct-26 22:33N 33°46' W 118°13'120324896.2
2014-Oct-26 22:31N 29°47' W 095°06'0 0.0
2014-Oct-26 21:33N 29°47' W 095°06'1203270746.2
2014-Oct-26 21:33N 33°46' W 118°13'0 0.0
2014-Oct-26 20:33N 33°46' W 118°13'120312377.0
2014-Oct-26 20:28N 29°47' W 095°06'12031329.2
2014-Oct-26 19:33N 33°46' W 118°13'0 0.0
2014-Oct-26 18:33N 33°46' W 118°13'12032680.7
2014-Oct-26 18:06N 29°47' W 095°06'12032182.3
2014-Oct-26 17:33N 33°46' W 118°13'12033462.8
2014-Oct-26 17:13N 29°47' W 095°06'12031845.0
2014-Oct-26 16:33N 33°46' W 118°13'12033094.3
2014-Oct-26 16:10N 29°47' W 095°06'12031970.0
2014-Oct-26 15:33N 33°46' W 118°13'1203108309.7
2014-Oct-26 15:33N 29°44' W 095°07'12031216.6
2014-Oct-26 14:33N 33°46' W 118°13'0 0.0
2014-Oct-26 13:33N 33°46' W 118°13'1202309162.2
2014-Oct-26 13:33N 29°44' W 095°08'12021207.3
2014-Oct-26 12:33N 33°46' W 118°13'1198862236.9
2014-Oct-26 12:33N 29°43' W 095°14'11981199.2
2014-Oct-26 11:33N 33°46' W 118°13'0 0.0
2014-Oct-26 10:33N 33°46' W 118°13'0 0.0
2014-Oct-26 09:33N 33°46' W 118°13'0 0.0
2014-Oct-26 08:33N 33°46' W 118°13'0 0.0
2014-Oct-26 07:30N 33°46' W 118°13'0 0.0
2014-Oct-26 06:33N 33°46' W 118°13'0 0.0
2014-Oct-26 05:33N 33°46' W 118°13'11969676.1
2014-Oct-26 05:26N 29°44' W 095°16'5 6.3
2014-Oct-26 04:33N 29°45' W 095°10'1201864647.0
2014-Oct-26 04:33N 33°46' W 118°13'12061208.2
2014-Oct-26 03:33N 29°44' W 095°03'1206723893.4
2014-Oct-26 03:33N 33°46' W 118°13'12121214.5
2014-Oct-26 02:33N 29°39' W 094°58'1212311775.3
2014-Oct-26 02:33N 33°46' W 118°13'0 0.0
2014-Oct-26 01:33N 33°46' W 118°13'121182266.8
2014-Oct-26 01:33N 29°37' W 095°00'12111229.2
2014-Oct-26 00:33N 33°46' W 118°13'121177859.6
2014-Oct-26 00:32N 29°37' W 095°00'12111229.9
2014-Oct-25 23:33N 33°46' W 118°13'121176493.7
2014-Oct-25 23:32N 29°37' W 095°00'12111230.6
2014-Oct-25 22:33N 33°46' W 118°13'121180743.3
2014-Oct-25 22:32N 29°37' W 095°00'12111229.9
2014-Oct-25 21:33N 33°46' W 118°13'121177859.7
2014-Oct-25 21:32N 29°37' W 095°00'12111230.3
2014-Oct-25 20:33N 33°46' W 118°13'0 0.0
2014-Oct-25 19:33N 33°46' W 118°13'0 0.0
2014-Oct-25 18:33N 33°46' W 118°13'0 0.0
2014-Oct-25 17:33N 33°46' W 118°13'0 0.0
2014-Oct-25 16:33N 33°46' W 118°13'0 0.0
2014-Oct-25 15:33N 33°46' W 118°13'0 0.0
2014-Oct-25 14:33N 33°46' W 118°13'12131214.7
2014-Oct-25 13:33N 29°37' W 094°58'1213728012.4
2014-Oct-25 13:33N 33°46' W 118°13'12081210.3
2014-Oct-25 12:33N 29°43' W 095°01'1208724969.8
2014-Oct-25 12:33N 33°46' W 118°13'0 0.0
2014-Oct-25 11:33N 33°46' W 118°13'120413583.3
2014-Oct-25 11:28N 29°45' W 095°06'12041320.7
2014-Oct-25 10:33N 33°46' W 118°13'120430090.7
2014-Oct-25 10:31N 29°45' W 095°06'12041254.1
2014-Oct-25 09:33N 33°46' W 118°13'120413415.0
2014-Oct-25 09:28N 29°45' W 095°06'12041314.2
2014-Oct-25 08:33N 33°46' W 118°13'120435810.3
2014-Oct-25 08:31N 29°45' W 095°06'12041252.7
2014-Oct-25 07:33N 33°46' W 118°13'120429678.5
2014-Oct-25 07:31N 29°45' W 095°06'12041254.1
2014-Oct-25 06:33N 33°46' W 118°13'120413583.3
2014-Oct-25 06:28N 29°45' W 095°06'12041321.1
2014-Oct-25 05:33N 33°46' W 118°13'120413415.1
2014-Oct-25 05:28N 29°45' W 095°06'12041322.7
2014-Oct-25 04:33N 33°46' W 118°13'120429883.2
2014-Oct-25 04:31N 29°45' W 095°06'12041249.8
2014-Oct-25 03:33N 33°46' W 118°13'120386637.1
2014-Oct-25 03:32N 29°44' W 095°07'12031223.7
2014-Oct-25 02:33N 33°46' W 118°13'12034329007.0
2014-Oct-25 02:33N 29°44' W 095°08'12031202.8
2014-Oct-25 01:33N 33°46' W 118°13'12034329007.0
2014-Oct-25 01:33N 29°44' W 095°08'12031203.2
2014-Oct-25 00:33N 33°46' W 118°13'12032164512.5
2014-Oct-25 00:33N 29°44' W 095°08'12031202.8
2014-Oct-24 23:33N 33°46' W 118°13'12034329013.6
2014-Oct-24 23:33N 29°44' W 095°08'12031203.2
2014-Oct-24 22:33N 33°46' W 118°13'12034329007.0
2014-Oct-24 22:33N 29°44' W 095°08'12031202.5
2014-Oct-24 21:33N 33°46' W 118°13'12034329013.6
2014-Oct-24 21:33N 29°44' W 095°08'12031202.8
2014-Oct-24 20:33N 33°46' W 118°13'0 0.0
2014-Oct-24 19:33N 33°46' W 118°13'0 0.0
2014-Oct-24 18:33N 33°46' W 118°13'0 0.0
2014-Oct-24 17:33N 33°46' W 118°13'12023025.0
2014-Oct-24 17:10N 29°44' W 095°09'12021995.3
2014-Oct-24 16:33N 33°46' W 118°13'12031202.2
2014-Oct-24 15:33N 29°44' W 095°08'12031203.2
2014-Oct-24 14:33N 33°46' W 118°13'0 0.0
2014-Oct-24 13:33N 33°46' W 118°13'12038946.1
2014-Oct-24 13:25N 29°46' W 095°07'12031389.6
2014-Oct-24 12:33N 33°46' W 118°13'12038247.4
2014-Oct-24 12:25N 29°46' W 095°07'12031409.0
2014-Oct-24 11:33N 33°46' W 118°13'12034024.1
2014-Oct-24 11:15N 29°46' W 095°07'12031715.5
2014-Oct-24 10:33N 33°46' W 118°13'0 0.0
2014-Oct-24 09:33N 33°46' W 118°13'12031204.4
2014-Oct-24 08:33N 29°46' W 095°07'1203288661.7
2014-Oct-24 08:33N 33°46' W 118°13'0 0.0
2014-Oct-24 07:33N 33°46' W 118°13'120375963.6
2014-Oct-24 07:32N 29°46' W 095°07'0 0.0
2014-Oct-24 06:33N 29°46' W 095°07'12031443308.5
2014-Oct-24 06:33N 33°46' W 118°13'0 0.0
2014-Oct-24 05:33N 33°46' W 118°13'120432100.7
2014-Oct-24 05:31N 29°45' W 095°06'3 3.2
2014-Oct-24 04:33N 29°44' W 095°03'1207868883.5
2014-Oct-24 04:33N 33°46' W 118°13'12121213.7
2014-Oct-24 03:33N 29°39' W 094°58'12121091149.2
2014-Oct-24 03:33N 33°46' W 118°13'12111213.1
2014-Oct-24 02:33N 29°37' W 094°60'1211872215.2
2014-Oct-24 02:33N 33°46' W 118°13'12121213.1
2014-Oct-24 01:33N 29°37' W 094°60'1212290824.4
2014-Oct-24 01:33N 33°46' W 118°13'12101214.5
2014-Oct-24 00:33N 29°42' W 095°00'12101088833.9
2014-Oct-24 00:33N 33°46' W 118°13'12041206.2
2014-Oct-23 23:33N 29°45' W 095°05'1204722499.8
2014-Oct-23 23:33N 33°46' W 118°13'0 0.0
2014-Oct-23 22:33N 33°46' W 118°13'119913236.1
2014-Oct-23 22:28N 29°43' W 095°13'11991317.6
2014-Oct-23 21:33N 33°46' W 118°13'0 0.0
2014-Oct-23 20:33N 33°46' W 118°13'0 0.0
2014-Oct-23 19:33N 33°46' W 118°13'0 0.0
2014-Oct-23 18:33N 33°46' W 118°13'0 0.0
2014-Oct-23 17:33N 33°46' W 118°13'0 0.0
2014-Oct-23 16:33N 33°46' W 118°13'1198172523.5
2014-Oct-23 16:33N 29°44' W 095°13'11981206.1
2014-Oct-23 15:33N 33°46' W 118°13'1204173323.4
2014-Oct-23 15:33N 29°45' W 095°06'5 5.0
2014-Oct-23 14:33N 29°43' W 095°01'12091087735.6
2014-Oct-23 14:33N 33°46' W 118°13'0 0.0
2014-Oct-23 13:33N 33°46' W 118°13'121027927.1
2014-Oct-23 13:31N 29°41' W 094°60'0 0.0
2014-Oct-23 12:33N 29°41' W 094°60'12101089157.5
2014-Oct-23 12:33N 33°46' W 118°13'12101211.5
2014-Oct-23 11:33N 29°41' W 094°60'1210871328.3
2014-Oct-23 11:33N 33°46' W 118°13'0 0.0
2014-Oct-23 10:33N 33°46' W 118°13'121014237.4
2014-Oct-23 10:28N 29°41' W 094°60'12101321.8
2014-Oct-23 09:33N 33°46' W 118°13'1210290440.4
2014-Oct-23 09:33N 29°41' W 094°60'5 4.7
2014-Oct-23 08:33N 29°44' W 095°04'1206868412.1
2014-Oct-23 08:33N 33°46' W 118°13'0 0.0
2014-Oct-23 07:33N 33°46' W 118°13'120167561.4
2014-Oct-23 07:32N 29°44' W 095°10'12011226.3
2014-Oct-23 06:33N 33°46' W 118°13'0 0.0
2014-Oct-23 05:33N 33°46' W 118°13'0 0.0
2014-Oct-23 04:33N 33°46' W 118°13'0 0.0
2014-Oct-23 03:33N 33°46' W 118°13'0 0.0
2014-Oct-23 02:33N 33°46' W 118°13'0 0.0
2014-Oct-23 01:33N 33°46' W 118°13'119722091.3
2014-Oct-23 01:30N 29°44' W 095°15'11971265.1
2014-Oct-23 00:33N 33°46' W 118°13'1201288201.1
2014-Oct-23 00:33N 29°45' W 095°10'6 5.6
2014-Oct-22 23:34N 29°44' W 095°03'1206723768.5
2014-Oct-22 23:34N 33°46' W 118°13'12101208.6
2014-Oct-22 22:33N 29°41' W 094°60'1210871367.5
2014-Oct-22 22:33N 33°46' W 118°13'12101211.7
2014-Oct-22 21:33N 29°41' W 095°01'1210725810.3
2014-Oct-22 21:33N 33°46' W 118°13'12101211.5
2014-Oct-22 20:33N 29°41' W 095°00'1210871058.6
2014-Oct-22 20:33N 33°46' W 118°13'12101211.5
2014-Oct-22 19:33N 29°41' W 095°00'1210871062.2
2014-Oct-22 19:33N 33°46' W 118°13'12101211.8
2014-Oct-22 18:33N 29°41' W 095°00'1210871062.2
2014-Oct-22 18:33N 33°46' W 118°13'12101211.1
2014-Oct-22 17:33N 29°41' W 095°00'1210871058.6
2014-Oct-22 17:33N 33°46' W 118°13'12101211.8
2014-Oct-22 16:33N 29°41' W 095°00'1210871062.2
2014-Oct-22 16:33N 33°46' W 118°13'12101211.5
2014-Oct-22 15:33N 29°41' W 095°00'1210871058.6
2014-Oct-22 15:33N 33°46' W 118°13'12101211.2
2014-Oct-22 14:33N 29°41' W 095°00'12101088827.7
2014-Oct-22 14:33N 33°46' W 118°13'12101211.5
2014-Oct-22 13:33N 29°41' W 095°00'1210871063.5
2014-Oct-22 13:33N 33°46' W 118°13'12091210.3
2014-Oct-22 12:33N 29°42' W 095°01'1209870415.4
2014-Oct-22 12:33N 33°46' W 118°13'0 0.0
2014-Oct-22 11:33N 33°46' W 118°13'120350971.1
2014-Oct-22 11:32N 29°46' W 095°06'12031232.9
2014-Oct-22 10:33N 33°46' W 118°13'12034734.3
2014-Oct-22 10:18N 29°47' W 095°06'12031613.4
2014-Oct-22 09:33N 33°46' W 118°13'12035442.1
2014-Oct-22 09:20N 29°47' W 095°06'12031544.3
2014-Oct-22 08:33N 33°46' W 118°13'1203180496.0
2014-Oct-22 08:33N 29°47' W 095°06'12031211.7
2014-Oct-22 07:33N 33°46' W 118°13'12038913.4
2014-Oct-22 07:25N 29°47' W 095°06'12031391.1
2014-Oct-22 06:33N 33°46' W 118°13'120377357.0
2014-Oct-22 06:32N 29°47' W 095°06'12031222.3
2014-Oct-22 05:33N 33°46' W 118°13'1204866735.6
2014-Oct-22 05:33N 29°45' W 095°06'12041205.1
2014-Oct-22 04:33N 33°46' W 118°13'1204866729.2
2014-Oct-22 04:33N 29°45' W 095°06'12041202.5
2014-Oct-22 03:33N 33°46' W 118°13'1204288909.7
2014-Oct-22 03:33N 29°45' W 095°06'0 0.0
2014-Oct-22 02:33N 29°45' W 095°06'1204288910.9
2014-Oct-22 02:33N 33°46' W 118°13'12041208.8
2014-Oct-22 01:33N 29°45' W 095°06'1204866727.9
2014-Oct-22 01:33N 33°46' W 118°13'12041205.8
2014-Oct-22 00:33N 29°45' W 095°06'1204866727.9
2014-Oct-22 00:33N 33°46' W 118°13'12041205.1
2014-Oct-21 23:33N 29°45' W 095°06'12041083409.9
2014-Oct-21 23:33N 33°46' W 118°13'12041205.5
2014-Oct-21 22:33N 29°45' W 095°06'1204270852.5
2014-Oct-21 22:33N 33°46' W 118°13'0 0.0
2014-Oct-21 21:33N 33°46' W 118°13'1204866731.5
2014-Oct-21 21:33N 29°45' W 095°06'0 0.0
2014-Oct-21 20:33N 29°45' W 095°06'1204722273.3
2014-Oct-21 20:33N 33°46' W 118°13'12041205.4
2014-Oct-21 19:33N 29°45' W 095°06'1204866666.8
2014-Oct-21 19:33N 33°46' W 118°13'0 0.0
2014-Oct-21 18:33N 33°46' W 118°13'1203288782.4
2014-Oct-21 18:33N 29°44' W 095°07'12031208.0
2014-Oct-21 17:33N 33°46' W 118°13'119857518.8
2014-Oct-21 17:32N 29°43' W 095°13'11981223.8
2014-Oct-21 16:33N 33°46' W 118°13'0 0.0
2014-Oct-21 15:33N 33°46' W 118°13'0 0.0
2014-Oct-21 14:33N 33°46' W 118°13'0 0.0
2014-Oct-21 13:33N 33°46' W 118°13'0 0.0
2014-Oct-21 12:33N 33°46' W 118°13'0 0.0
2014-Oct-21 11:33N 33°46' W 118°13'0 0.0
2014-Oct-21 10:33N 33°46' W 118°13'0 0.0
2014-Oct-21 09:33N 33°46' W 118°13'0 0.0
2014-Oct-21 08:33N 33°46' W 118°13'0 0.0
2014-Oct-21 07:33N 33°46' W 118°13'119717653.4
2014-Oct-21 07:29N 29°44' W 095°15'11971283.5
2014-Oct-21 06:33N 33°46' W 118°13'12011080765.5
2014-Oct-21 06:33N 29°45' W 095°10'12011202.2
2014-Oct-21 05:33N 33°46' W 118°13'0 0.0
2014-Oct-21 04:33N 33°46' W 118°13'0 0.0
2014-Oct-21 03:33N 33°46' W 118°13'0 0.0
2014-Oct-21 02:33N 33°46' W 118°13'0 0.0
2014-Oct-21 01:33N 33°46' W 118°13'12048583.5
2014-Oct-21 01:25N 29°45' W 095°06'12041401.0
2014-Oct-21 00:33N 33°46' W 118°13'  
Track history (hours):
 
Tides and Currents Weather Stations Pressure Air Temp Water Temp Dewpoint Dewpoint Depression Visibility Wind Speed Wind Dir Waves Ship Positions

Patcona II

Owner: Connolly-Pacific Co, long beach, CA. More information available from US FCC via Universal Licensing System and Coast Guard Vessel Documentation Center.

Last reported at 2014-Oct-30 23:33 UTC. Time now 2014-Oct-30 23:49 UTC.
Position N 33°46' W 118°13'.

; draft 9 m.

Type: Towing. MMSI: 366988960.

Date/timePositionNaut miles runAvg speedWind from/ knotsBaromVisibWave heightAir tempDewpointWater temp
2014-Oct-30 23:33N 33°46' W 118°13'0 0.0
2014-Oct-30 22:33N 33°46' W 118°13'0 0.0
2014-Oct-30 21:33N 33°46' W 118°13'0 0.0
2014-Oct-30 20:33N 33°46' W 118°13'1204103182.9
2014-Oct-30 20:33N 29°45' W 095°06'12041218.0
2014-Oct-30 19:33N 33°46' W 118°13'120212620.9
2014-Oct-30 19:28N 29°44' W 095°08'12021328.7
2014-Oct-30 18:33N 33°46' W 118°13'120260124.4
2014-Oct-30 18:32N 29°44' W 095°08'12021227.4
2014-Oct-30 17:33N 33°46' W 118°13'1202332969.8
2014-Oct-30 17:33N 29°44' W 095°08'12021206.7
2014-Oct-30 16:33N 33°46' W 118°13'1202360743.5
2014-Oct-30 16:33N 29°44' W 095°08'12021206.5
2014-Oct-30 15:33N 33°46' W 118°13'120414494.7
2014-Oct-30 15:28N 29°45' W 095°06'12041312.9
2014-Oct-30 14:33N 33°46' W 118°13'12046616.7
2014-Oct-30 14:22N 29°45' W 095°06'12041471.6
2014-Oct-30 13:33N 33°46' W 118°13'120414791.5
2014-Oct-30 13:29N 29°45' W 095°06'12041310.5
2014-Oct-30 12:33N 33°46' W 118°13'0 0.0
2014-Oct-30 11:33N 33°46' W 118°13'120414494.7
2014-Oct-30 11:28N 29°45' W 095°06'12041312.5
2014-Oct-30 10:33N 33°46' W 118°13'120414592.3
2014-Oct-30 10:28N 29°45' W 095°06'12041311.7
2014-Oct-30 09:33N 33°46' W 118°13'120438016.9
2014-Oct-30 09:31N 29°45' W 095°06'12041244.0
2014-Oct-30 08:33N 33°46' W 118°13'12049085.8
2014-Oct-30 08:25N 29°45' W 095°06'12041387.7
2014-Oct-30 07:33N 33°46' W 118°13'12043138.3
2014-Oct-30 07:10N 29°45' W 095°06'12041944.3
2014-Oct-30 06:33N 33°46' W 118°13'12042790.7
2014-Oct-30 06:07N 29°45' W 095°06'12042125.5
2014-Oct-30 05:33N 33°46' W 118°13'12046556.6
2014-Oct-30 05:22N 29°45' W 095°06'12041475.1
2014-Oct-30 04:33N 33°46' W 118°13'12043593.6
2014-Oct-30 04:13N 29°45' W 095°06'12041809.6
2014-Oct-30 03:33N 33°46' W 118°13'120441264.7
2014-Oct-30 03:32N 29°46' W 095°06'12041240.4
2014-Oct-30 02:33N 33°46' W 118°13'0 0.0
2014-Oct-30 01:33N 33°46' W 118°13'0 0.0
2014-Oct-30 00:33N 33°46' W 118°13'0 0.0
2014-Oct-29 23:33N 33°46' W 118°13'0 0.0
2014-Oct-29 22:33N 33°46' W 118°13'120478813.0
2014-Oct-29 22:32N 29°46' W 095°05'12041226.6
2014-Oct-29 21:33N 33°46' W 118°13'1200254062.3
2014-Oct-29 21:33N 29°45' W 095°11'12001204.8
2014-Oct-29 20:33N 33°46' W 118°13'0 0.0
2014-Oct-29 19:33N 33°46' W 118°13'0 0.0
2014-Oct-29 18:33N 33°46' W 118°13'0 0.0
2014-Oct-29 17:33N 33°46' W 118°13'0 0.0
2014-Oct-29 16:33N 33°46' W 118°13'0 0.0
2014-Oct-29 15:33N 33°46' W 118°13'0 0.0
2014-Oct-29 14:33N 33°46' W 118°13'0 0.0
2014-Oct-29 13:33N 33°46' W 118°13'0 0.0
2014-Oct-29 12:33N 33°46' W 118°13'0 0.0
2014-Oct-29 11:33N 33°46' W 118°13'11958501.9
2014-Oct-29 11:25N 29°44' W 095°17'11951390.9
2014-Oct-29 10:33N 33°46' W 118°13'119525916.0
2014-Oct-29 10:31N 29°44' W 095°17'11951252.8
2014-Oct-29 09:33N 33°46' W 118°13'1199719351.7
2014-Oct-29 09:33N 29°44' W 095°12'11991200.6
2014-Oct-29 08:33N 33°46' W 118°13'0 0.0
2014-Oct-29 07:33N 33°46' W 118°13'0 0.0
2014-Oct-29 06:33N 33°46' W 118°13'12043268.7
2014-Oct-29 06:11N 29°45' W 095°06'12041906.0
2014-Oct-29 05:33N 33°46' W 118°13'0 0.0
2014-Oct-29 04:33N 33°46' W 118°13'0 0.0
2014-Oct-29 03:33N 33°46' W 118°13'12047923.1
2014-Oct-29 03:24N 29°45' W 095°06'12041419.6
2014-Oct-29 02:33N 33°46' W 118°13'12024056.4
2014-Oct-29 02:16N 29°44' W 095°08'12021709.4
2014-Oct-29 01:33N 33°46' W 118°13'12027003.5
2014-Oct-29 01:23N 29°44' W 095°08'12021450.5
2014-Oct-29 00:33N 33°46' W 118°13'0 0.0
2014-Oct-28 23:33N 33°46' W 118°13'0 0.0
2014-Oct-28 22:33N 33°46' W 118°13'0 0.0
2014-Oct-28 21:33N 33°46' W 118°13'1202113899.8
2014-Oct-28 21:33N 29°44' W 095°08'12021215.4
2014-Oct-28 20:33N 33°46' W 118°13'120363700.5
2014-Oct-28 20:32N 29°44' W 095°07'12031226.1
2014-Oct-28 19:33N 33°46' W 118°13'0 0.0
2014-Oct-28 18:33N 33°46' W 118°13'0 0.0
2014-Oct-28 17:33N 33°46' W 118°13'0 0.0
2014-Oct-28 16:33N 33°46' W 118°13'0 0.0
2014-Oct-28 15:33N 33°46' W 118°13'0 0.0
2014-Oct-28 14:33N 33°46' W 118°13'120413629.8
2014-Oct-28 14:28N 29°45' W 095°06'12041320.6
2014-Oct-28 13:33N 33°46' W 118°13'0 0.0
2014-Oct-28 12:33N 33°46' W 118°13'0 0.0
2014-Oct-28 11:33N 33°46' W 118°13'0 0.0
2014-Oct-28 10:33N 33°46' W 118°13'0 0.0
2014-Oct-28 09:33N 33°46' W 118°13'0 0.0
2014-Oct-28 08:33N 33°46' W 118°13'0 0.0
2014-Oct-28 07:33N 33°46' W 118°13'0 0.0
2014-Oct-28 06:33N 33°46' W 118°13'0 0.0
2014-Oct-28 05:33N 33°46' W 118°13'0 0.0
2014-Oct-28 04:33N 33°46' W 118°13'0 0.0
2014-Oct-28 03:34N 33°46' W 118°13'0 0.0
2014-Oct-28 02:33N 33°46' W 118°13'0 0.0
2014-Oct-28 01:33N 33°46' W 118°13'0 0.0
2014-Oct-28 00:33N 33°46' W 118°13'12043983.4
2014-Oct-28 00:15N 29°45' W 095°06'12041732.2
2014-Oct-27 23:33N 33°46' W 118°13'1204254936.4
2014-Oct-27 23:33N 29°45' W 095°06'12041209.6
2014-Oct-27 22:33N 33°46' W 118°13'0 0.0
2014-Oct-27 21:33N 33°46' W 118°13'0 0.0
2014-Oct-27 20:33N 33°46' W 118°13'0 0.0
2014-Oct-27 19:33N 33°46' W 118°13'12043529.6
2014-Oct-27 19:13N 29°45' W 095°06'12041826.5
2014-Oct-27 18:33N 33°46' W 118°13'0 0.0
2014-Oct-27 17:33N 33°46' W 118°13'0 0.0
2014-Oct-27 16:33N 33°46' W 118°13'0 0.0
2014-Oct-27 15:33N 33°46' W 118°13'0 0.0
2014-Oct-27 14:33N 33°46' W 118°13'0 0.0
2014-Oct-27 13:33N 33°46' W 118°13'12035339.0
2014-Oct-27 13:20N 29°46' W 095°07'12031553.1
2014-Oct-27 12:33N 33°46' W 118°13'0 0.0
2014-Oct-27 11:33N 33°46' W 118°13'12033761.9
2014-Oct-27 11:14N 29°46' W 095°07'12031767.3
2014-Oct-27 10:33N 33°46' W 118°13'1203481323.3
2014-Oct-27 10:33N 29°46' W 095°06'12031207.0
2014-Oct-27 09:33N 33°46' W 118°13'1199392520.5
2014-Oct-27 09:33N 29°45' W 095°12'11991202.7
2014-Oct-27 08:33N 33°46' W 118°13'119810756.0
2014-Oct-27 08:27N 29°44' W 095°13'11981339.9
2014-Oct-27 07:33N 33°46' W 118°13'119822347.9
2014-Oct-27 07:30N 29°44' W 095°13'11981273.4
2014-Oct-27 06:33N 33°46' W 118°13'1198105198.8
2014-Oct-27 06:33N 29°44' W 095°13'11981212.2
2014-Oct-27 05:33N 33°46' W 118°13'1198102694.1
2014-Oct-27 05:33N 29°44' W 095°13'11981208.2
2014-Oct-27 04:33N 33°46' W 118°13'1198139133.9
2014-Oct-27 04:33N 29°44' W 095°13'11981211.9
2014-Oct-27 03:33N 33°46' W 118°13'1198119809.8
2014-Oct-27 03:33N 29°44' W 095°13'11981210.2
2014-Oct-27 02:33N 33°46' W 118°13'119950187.9
2014-Oct-27 02:32N 29°44' W 095°12'11991228.6
2014-Oct-27 01:33N 33°46' W 118°13'1204160537.8
2014-Oct-27 01:33N 29°46' W 095°05'12041216.2
2014-Oct-27 00:34N 33°46' W 118°13'120312134.3
2014-Oct-27 00:28N 29°47' W 095°06'12031332.1
2014-Oct-26 23:33N 33°46' W 118°13'120324754.0
2014-Oct-26 23:30N 29°47' W 095°06'12031264.8
2014-Oct-26 22:33N 33°46' W 118°13'120324896.2
2014-Oct-26 22:31N 29°47' W 095°06'0 0.0
2014-Oct-26 21:33N 29°47' W 095°06'1203270746.2
2014-Oct-26 21:33N 33°46' W 118°13'0 0.0
2014-Oct-26 20:33N 33°46' W 118°13'120312377.0
2014-Oct-26 20:28N 29°47' W 095°06'12031329.2
2014-Oct-26 19:33N 33°46' W 118°13'0 0.0
2014-Oct-26 18:33N 33°46' W 118°13'12032680.7
2014-Oct-26 18:06N 29°47' W 095°06'12032182.3
2014-Oct-26 17:33N 33°46' W 118°13'12033462.8
2014-Oct-26 17:13N 29°47' W 095°06'12031845.0
2014-Oct-26 16:33N 33°46' W 118°13'12033094.3
2014-Oct-26 16:10N 29°47' W 095°06'12031970.0
2014-Oct-26 15:33N 33°46' W 118°13'1203108309.7
2014-Oct-26 15:33N 29°44' W 095°07'12031216.6
2014-Oct-26 14:33N 33°46' W 118°13'0 0.0
2014-Oct-26 13:33N 33°46' W 118°13'1202309162.2
2014-Oct-26 13:33N 29°44' W 095°08'12021207.3
2014-Oct-26 12:33N 33°46' W 118°13'1198862236.9
2014-Oct-26 12:33N 29°43' W 095°14'11981199.2
2014-Oct-26 11:33N 33°46' W 118°13'0 0.0
2014-Oct-26 10:33N 33°46' W 118°13'0 0.0
2014-Oct-26 09:33N 33°46' W 118°13'0 0.0
2014-Oct-26 08:33N 33°46' W 118°13'0 0.0
2014-Oct-26 07:30N 33°46' W 118°13'0 0.0
2014-Oct-26 06:33N 33°46' W 118°13'0 0.0
2014-Oct-26 05:33N 33°46' W 118°13'11969676.1
2014-Oct-26 05:26N 29°44' W 095°16'5 6.3
2014-Oct-26 04:33N 29°45' W 095°10'1201864647.0
2014-Oct-26 04:33N 33°46' W 118°13'12061208.2
2014-Oct-26 03:33N 29°44' W 095°03'1206723893.4
2014-Oct-26 03:33N 33°46' W 118°13'12121214.5
2014-Oct-26 02:33N 29°39' W 094°58'1212311775.3
2014-Oct-26 02:33N 33°46' W 118°13'0 0.0
2014-Oct-26 01:33N 33°46' W 118°13'121182266.8
2014-Oct-26 01:33N 29°37' W 095°00'12111229.2
2014-Oct-26 00:33N 33°46' W 118°13'121177859.6
2014-Oct-26 00:32N 29°37' W 095°00'12111229.9
2014-Oct-25 23:33N 33°46' W 118°13'121176493.7
2014-Oct-25 23:32N 29°37' W 095°00'12111230.6
2014-Oct-25 22:33N 33°46' W 118°13'121180743.3
2014-Oct-25 22:32N 29°37' W 095°00'12111229.9
2014-Oct-25 21:33N 33°46' W 118°13'121177859.7
2014-Oct-25 21:32N 29°37' W 095°00'12111230.3
2014-Oct-25 20:33N 33°46' W 118°13'0 0.0
2014-Oct-25 19:33N 33°46' W 118°13'0 0.0
2014-Oct-25 18:33N 33°46' W 118°13'0 0.0
2014-Oct-25 17:33N 33°46' W 118°13'0 0.0
2014-Oct-25 16:33N 33°46' W 118°13'0 0.0
2014-Oct-25 15:33N 33°46' W 118°13'0 0.0
2014-Oct-25 14:33N 33°46' W 118°13'12131214.7
2014-Oct-25 13:33N 29°37' W 094°58'1213728012.4
2014-Oct-25 13:33N 33°46' W 118°13'12081210.3
2014-Oct-25 12:33N 29°43' W 095°01'1208724969.8
2014-Oct-25 12:33N 33°46' W 118°13'0 0.0
2014-Oct-25 11:33N 33°46' W 118°13'120413583.3
2014-Oct-25 11:28N 29°45' W 095°06'12041320.7
2014-Oct-25 10:33N 33°46' W 118°13'120430090.7
2014-Oct-25 10:31N 29°45' W 095°06'12041254.1
2014-Oct-25 09:33N 33°46' W 118°13'120413415.0
2014-Oct-25 09:28N 29°45' W 095°06'12041314.2
2014-Oct-25 08:33N 33°46' W 118°13'120435810.3
2014-Oct-25 08:31N 29°45' W 095°06'12041252.7
2014-Oct-25 07:33N 33°46' W 118°13'120429678.5
2014-Oct-25 07:31N 29°45' W 095°06'12041254.1
2014-Oct-25 06:33N 33°46' W 118°13'120413583.3
2014-Oct-25 06:28N 29°45' W 095°06'12041321.1
2014-Oct-25 05:33N 33°46' W 118°13'120413415.1
2014-Oct-25 05:28N 29°45' W 095°06'12041322.7
2014-Oct-25 04:33N 33°46' W 118°13'120429883.2
2014-Oct-25 04:31N 29°45' W 095°06'12041249.8
2014-Oct-25 03:33N 33°46' W 118°13'120386637.1
2014-Oct-25 03:32N 29°44' W 095°07'12031223.7
2014-Oct-25 02:33N 33°46' W 118°13'12034329007.0
2014-Oct-25 02:33N 29°44' W 095°08'12031202.8
2014-Oct-25 01:33N 33°46' W 118°13'12034329007.0
2014-Oct-25 01:33N 29°44' W 095°08'12031203.2
2014-Oct-25 00:33N 33°46' W 118°13'12032164512.5
2014-Oct-25 00:33N 29°44' W 095°08'12031202.8
2014-Oct-24 23:33N 33°46' W 118°13'12034329013.6
2014-Oct-24 23:33N 29°44' W 095°08'12031203.2
2014-Oct-24 22:33N 33°46' W 118°13'12034329007.0
2014-Oct-24 22:33N 29°44' W 095°08'12031202.5
2014-Oct-24 21:33N 33°46' W 118°13'12034329013.6
2014-Oct-24 21:33N 29°44' W 095°08'12031202.8
2014-Oct-24 20:33N 33°46' W 118°13'0 0.0
2014-Oct-24 19:33N 33°46' W 118°13'0 0.0
2014-Oct-24 18:33N 33°46' W 118°13'0 0.0
2014-Oct-24 17:33N 33°46' W 118°13'12023025.0
2014-Oct-24 17:10N 29°44' W 095°09'12021995.3
2014-Oct-24 16:33N 33°46' W 118°13'12031202.2
2014-Oct-24 15:33N 29°44' W 095°08'12031203.2
2014-Oct-24 14:33N 33°46' W 118°13'0 0.0
2014-Oct-24 13:33N 33°46' W 118°13'12038946.1
2014-Oct-24 13:25N 29°46' W 095°07'12031389.6
2014-Oct-24 12:33N 33°46' W 118°13'12038247.4
2014-Oct-24 12:25N 29°46' W 095°07'12031409.0
2014-Oct-24 11:33N 33°46' W 118°13'12034024.1
2014-Oct-24 11:15N 29°46' W 095°07'12031715.5
2014-Oct-24 10:33N 33°46' W 118°13'0 0.0
2014-Oct-24 09:33N 33°46' W 118°13'12031204.4
2014-Oct-24 08:33N 29°46' W 095°07'1203288661.7
2014-Oct-24 08:33N 33°46' W 118°13'0 0.0
2014-Oct-24 07:33N 33°46' W 118°13'120375963.6
2014-Oct-24 07:32N 29°46' W 095°07'0 0.0
2014-Oct-24 06:33N 29°46' W 095°07'12031443308.5
2014-Oct-24 06:33N 33°46' W 118°13'0 0.0
2014-Oct-24 05:33N 33°46' W 118°13'120432100.7
2014-Oct-24 05:31N 29°45' W 095°06'3 3.2
2014-Oct-24 04:33N 29°44' W 095°03'1207868883.5
2014-Oct-24 04:33N 33°46' W 118°13'12121213.7
2014-Oct-24 03:33N 29°39' W 094°58'12121091149.2
2014-Oct-24 03:33N 33°46' W 118°13'12111213.1
2014-Oct-24 02:33N 29°37' W 094°60'1211872215.2
2014-Oct-24 02:33N 33°46' W 118°13'12121213.1
2014-Oct-24 01:33N 29°37' W 094°60'1212290824.4
2014-Oct-24 01:33N 33°46' W 118°13'12101214.5
2014-Oct-24 00:33N 29°42' W 095°00'12101088833.9
2014-Oct-24 00:33N 33°46' W 118°13'12041206.2
2014-Oct-23 23:33N 29°45' W 095°05'1204722499.8
2014-Oct-23 23:33N 33°46' W 118°13'0 0.0
2014-Oct-23 22:33N 33°46' W 118°13'119913236.1
2014-Oct-23 22:28N 29°43' W 095°13'11991317.6
2014-Oct-23 21:33N 33°46' W 118°13'0 0.0
2014-Oct-23 20:33N 33°46' W 118°13'0 0.0
2014-Oct-23 19:33N 33°46' W 118°13'0 0.0
2014-Oct-23 18:33N 33°46' W 118°13'0 0.0
2014-Oct-23 17:33N 33°46' W 118°13'0 0.0
2014-Oct-23 16:33N 33°46' W 118°13'1198172523.5
2014-Oct-23 16:33N 29°44' W 095°13'11981206.1
2014-Oct-23 15:33N 33°46' W 118°13'1204173323.4
2014-Oct-23 15:33N 29°45' W 095°06'5 5.0
2014-Oct-23 14:33N 29°43' W 095°01'12091087735.6
2014-Oct-23 14:33N 33°46' W 118°13'0 0.0
2014-Oct-23 13:33N 33°46' W 118°13'121027927.1
2014-Oct-23 13:31N 29°41' W 094°60'0 0.0
2014-Oct-23 12:33N 29°41' W 094°60'12101089157.5
2014-Oct-23 12:33N 33°46' W 118°13'12101211.5
2014-Oct-23 11:33N 29°41' W 094°60'1210871328.3
2014-Oct-23 11:33N 33°46' W 118°13'0 0.0
2014-Oct-23 10:33N 33°46' W 118°13'121014237.4
2014-Oct-23 10:28N 29°41' W 094°60'12101321.8
2014-Oct-23 09:33N 33°46' W 118°13'1210290440.4
2014-Oct-23 09:33N 29°41' W 094°60'5 4.7
2014-Oct-23 08:33N 29°44' W 095°04'1206868412.1
2014-Oct-23 08:33N 33°46' W 118°13'0 0.0
2014-Oct-23 07:33N 33°46' W 118°13'120167561.4
2014-Oct-23 07:32N 29°44' W 095°10'12011226.3
2014-Oct-23 06:33N 33°46' W 118°13'0 0.0
2014-Oct-23 05:33N 33°46' W 118°13'0 0.0
2014-Oct-23 04:33N 33°46' W 118°13'0 0.0
2014-Oct-23 03:33N 33°46' W 118°13'0 0.0
2014-Oct-23 02:33N 33°46' W 118°13'0 0.0
2014-Oct-23 01:33N 33°46' W 118°13'119722091.3
2014-Oct-23 01:30N 29°44' W 095°15'11971265.1
2014-Oct-23 00:33N 33°46' W 118°13'1201288201.1
2014-Oct-23 00:33N 29°45' W 095°10'6 5.6
2014-Oct-22 23:34N 29°44' W 095°03'1206723768.5
2014-Oct-22 23:34N 33°46' W 118°13'12101208.6
2014-Oct-22 22:33N 29°41' W 094°60'1210871367.5
2014-Oct-22 22:33N 33°46' W 118°13'12101211.7
2014-Oct-22 21:33N 29°41' W 095°01'1210725810.3
2014-Oct-22 21:33N 33°46' W 118°13'12101211.5
2014-Oct-22 20:33N 29°41' W 095°00'1210871058.6
2014-Oct-22 20:33N 33°46' W 118°13'12101211.5
2014-Oct-22 19:33N 29°41' W 095°00'1210871062.2
2014-Oct-22 19:33N 33°46' W 118°13'12101211.8
2014-Oct-22 18:33N 29°41' W 095°00'1210871062.2
2014-Oct-22 18:33N 33°46' W 118°13'12101211.1
2014-Oct-22 17:33N 29°41' W 095°00'1210871058.6
2014-Oct-22 17:33N 33°46' W 118°13'12101211.8
2014-Oct-22 16:33N 29°41' W 095°00'1210871062.2
2014-Oct-22 16:33N 33°46' W 118°13'12101211.5
2014-Oct-22 15:33N 29°41' W 095°00'1210871058.6
2014-Oct-22 15:33N 33°46' W 118°13'12101211.2
2014-Oct-22 14:33N 29°41' W 095°00'12101088827.7
2014-Oct-22 14:33N 33°46' W 118°13'12101211.5
2014-Oct-22 13:33N 29°41' W 095°00'1210871063.5
2014-Oct-22 13:33N 33°46' W 118°13'12091210.3
2014-Oct-22 12:33N 29°42' W 095°01'1209870415.4
2014-Oct-22 12:33N 33°46' W 118°13'0 0.0
2014-Oct-22 11:33N 33°46' W 118°13'120350971.1
2014-Oct-22 11:32N 29°46' W 095°06'12031232.9
2014-Oct-22 10:33N 33°46' W 118°13'12034734.3
2014-Oct-22 10:18N 29°47' W 095°06'12031613.4
2014-Oct-22 09:33N 33°46' W 118°13'12035442.1
2014-Oct-22 09:20N 29°47' W 095°06'12031544.3
2014-Oct-22 08:33N 33°46' W 118°13'1203180496.0
2014-Oct-22 08:33N 29°47' W 095°06'12031211.7
2014-Oct-22 07:33N 33°46' W 118°13'12038913.4
2014-Oct-22 07:25N 29°47' W 095°06'12031391.1
2014-Oct-22 06:33N 33°46' W 118°13'120377357.0
2014-Oct-22 06:32N 29°47' W 095°06'12031222.3
2014-Oct-22 05:33N 33°46' W 118°13'1204866735.6
2014-Oct-22 05:33N 29°45' W 095°06'12041205.1
2014-Oct-22 04:33N 33°46' W 118°13'1204866729.2
2014-Oct-22 04:33N 29°45' W 095°06'12041202.5
2014-Oct-22 03:33N 33°46' W 118°13'1204288909.7
2014-Oct-22 03:33N 29°45' W 095°06'0 0.0
2014-Oct-22 02:33N 29°45' W 095°06'1204288910.9
2014-Oct-22 02:33N 33°46' W 118°13'12041208.8
2014-Oct-22 01:33N 29°45' W 095°06'1204866727.9
2014-Oct-22 01:33N 33°46' W 118°13'12041205.8
2014-Oct-22 00:33N 29°45' W 095°06'1204866727.9
2014-Oct-22 00:33N 33°46' W 118°13'12041205.1
2014-Oct-21 23:33N 29°45' W 095°06'12041083409.9
2014-Oct-21 23:33N 33°46' W 118°13'12041205.5
2014-Oct-21 22:33N 29°45' W 095°06'1204270852.5
2014-Oct-21 22:33N 33°46' W 118°13'0 0.0
2014-Oct-21 21:33N 33°46' W 118°13'1204866731.5
2014-Oct-21 21:33N 29°45' W 095°06'0 0.0
2014-Oct-21 20:33N 29°45' W 095°06'1204722273.3
2014-Oct-21 20:33N 33°46' W 118°13'12041205.4
2014-Oct-21 19:33N 29°45' W 095°06'1204866666.8
2014-Oct-21 19:33N 33°46' W 118°13'0 0.0
2014-Oct-21 18:33N 33°46' W 118°13'1203288782.4
2014-Oct-21 18:33N 29°44' W 095°07'12031208.0
2014-Oct-21 17:33N 33°46' W 118°13'119857518.8
2014-Oct-21 17:32N 29°43' W 095°13'11981223.8
2014-Oct-21 16:33N 33°46' W 118°13'0 0.0
2014-Oct-21 15:33N 33°46' W 118°13'0 0.0
2014-Oct-21 14:33N 33°46' W 118°13'0 0.0
2014-Oct-21 13:33N 33°46' W 118°13'0 0.0
2014-Oct-21 12:33N 33°46' W 118°13'0 0.0
2014-Oct-21 11:33N 33°46' W 118°13'0 0.0
2014-Oct-21 10:33N 33°46' W 118°13'0 0.0
2014-Oct-21 09:33N 33°46' W 118°13'0 0.0
2014-Oct-21 08:33N 33°46' W 118°13'0 0.0
2014-Oct-21 07:33N 33°46' W 118°13'119717653.4
2014-Oct-21 07:29N 29°44' W 095°15'11971283.5
2014-Oct-21 06:33N 33°46' W 118°13'12011080765.5
2014-Oct-21 06:33N 29°45' W 095°10'12011202.2
2014-Oct-21 05:33N 33°46' W 118°13'0 0.0
2014-Oct-21 04:33N 33°46' W 118°13'0 0.0
2014-Oct-21 03:33N 33°46' W 118°13'0 0.0
2014-Oct-21 02:33N 33°46' W 118°13'0 0.0
2014-Oct-21 01:33N 33°46' W 118°13'12048583.5
2014-Oct-21 01:25N 29°45' W 095°06'12041401.0
2014-Oct-21 00:33N 33°46' W 118°13'  

Dump ship's entire track history